Time;durP1;ratioP1;P1;durP2;ratioP2;P2;SDS_P1;SDS_P2;PMS_P1;PMS_P2;Temp;Humidity;BMP_temperature;BMP_pressure;BME280_temperature;BME280_humidity;BME280_pressure;Samples;Min_cycle;Max_cycle;Signal;HPM_P1;HPM_P2
2022/01/26 00:07:12;;;;;;;133.95;71.70;;;7.20;99.90;;;7.46;67.76;103218.03;5027639;28;20048;-61
2022/01/26 00:09:41;;;;;;;129.60;67.93;;;7.20;99.90;;;7.16;68.97;103209.59;5071433;28;20101;-60
2022/01/26 00:12:11;;;;;;;129.88;69.10;;;6.90;99.90;;;7.21;68.35;103204.56;5071701;28;20064;-60
2022/01/26 00:14:42;;;;;;;134.48;73.22;;;6.90;99.90;;;6.80;68.78;103210.50;5071336;28;20051;-60
2022/01/26 00:17:12;;;;;;;124.80;68.05;;;6.60;99.90;;;6.64;69.79;103204.44;5071187;28;20044;-60
2022/01/26 00:19:50;;;;;;;129.50;68.53;;;6.40;99.90;;;6.88;69.58;103208.25;5071372;28;20098;-61
2022/01/26 00:22:39;;;;;;;135.45;70.80;;;6.50;99.90;;;6.88;69.33;103206.50;5071640;28;20098;-60
2022/01/26 00:25:23;;;;;;;129.20;68.10;;;6.60;99.90;;;6.54;70.18;103194.28;5071222;28;20045;-61
2022/01/26 00:27:55;;;;;;;127.85;68.55;;;6.30;99.90;;;6.23;71.40;103190.13;5071466;28;20044;-61
2022/01/26 00:38:49;;;;;;;132.55;71.47;;;6.50;99.90;;;6.59;70.31;103188.41;5071013;28;20086;-61
2022/01/26 00:41:32;;;;;;;129.32;69.43;;;6.40;99.90;;;6.18;71.11;103127.66;5071271;28;20375;-61
2022/01/26 00:44:01;;;;;;;136.77;70.75;;;6.30;99.90;;;6.58;71.22;103175.22;5070987;28;20511;-61
2022/01/26 00:46:30;;;;;;;138.87;72.10;;;6.30;99.90;;;6.46;70.92;103157.09;5071092;28;20048;-61
2022/01/26 00:48:59;;;;;;;131.07;68.28;;;6.40;99.90;;;6.58;70.79;103176.09;5069772;28;20126;-61
2022/01/26 00:51:27;;;;;;;138.23;72.47;;;6.50;99.90;;;6.54;71.24;103173.25;5070960;28;20068;-61
2022/01/26 00:54:02;;;;;;;134.20;71.23;;;6.50;99.90;;;6.32;71.83;103163.41;5071184;28;20064;-61
2022/01/26 00:56:31;;;;;;;134.33;72.50;;;6.30;99.90;;;5.98;72.96;103173.94;5071119;28;20044;-61
2022/01/26 00:59:00;;;;;;;136.03;72.03;;;5.90;99.90;;;6.07;73.33;103165.63;5069821;28;20139;-61
2022/01/26 01:01:31;;;;;;;138.43;72.57;;;5.80;99.90;;;6.05;73.32;103168.19;5070772;28;20052;-60
2022/01/26 01:04:01;;;;;;;133.30;69.07;;;5.80;99.90;;;6.16;73.70;103164.38;5070921;28;20098;-61
2022/01/26 01:06:35;;;;;;;136.60;71.90;;;5.90;99.90;;;6.25;73.55;103169.19;5070778;28;20119;-61
2022/01/26 01:09:05;;;;;;;131.73;70.20;;;6.10;99.90;;;6.07;74.61;103155.13;5070936;28;20045;-61
2022/01/26 01:11:34;;;;;;;136.77;68.30;;;6.00;99.90;;;6.11;74.61;103159.72;5071321;28;20454;-60
2022/01/26 01:14:02;;;;;;;138.93;69.77;;;5.90;99.90;;;6.16;75.04;103152.94;5071095;28;20278;-60
2022/01/26 01:16:30;;;;;;;138.27;68.60;;;6.00;99.90;;;5.45;74.74;103033.75;5071088;28;20068;-61
2022/01/26 01:19:05;;;;;;;141.53;72.17;;;6.00;99.90;;;6.16;74.92;103152.94;5074145;28;20056;-61
2022/01/26 01:30:11;;;;;;;140.23;68.82;;;5.90;99.90;;;5.82;75.98;103124.06;4992691;28;20201;-60
2022/01/26 01:32:51;;;;;;;138.67;71.17;;;5.80;99.90;;;5.81;76.50;103124.88;4992674;28;20431;-60
2022/01/26 01:35:20;;;;;;;143.10;72.20;;;5.80;99.90;;;5.79;76.67;103133.53;5039737;28;20493;-61
2022/01/26 01:37:49;;;;;;;135.63;70.57;;;5.60;99.90;;;5.98;76.59;103139.78;5073993;28;20140;-60
2022/01/26 01:40:19;;;;;;;138.70;71.70;;;5.80;99.90;;;6.14;76.15;103129.22;5074343;28;20040;-60
2022/01/26 01:42:47;;;;;;;131.17;68.13;;;6.00;99.90;;;6.31;76.09;103133.59;5074073;28;20501;-60
2022/01/26 01:45:16;;;;;;;129.97;69.47;;;6.10;99.90;;;6.39;76.39;103121.72;5073977;28;20299;-60
2022/01/26 01:47:44;;;;;;;127.33;68.53;;;6.20;99.90;;;6.49;76.07;103130.03;5072907;28;20048;-60
2022/01/26 01:50:13;;;;;;;143.45;70.95;;;6.30;99.90;;;6.55;76.13;103133.88;5073914;28;20041;-60
2022/01/26 01:52:42;;;;;;;138.87;69.87;;;6.40;99.90;;;6.63;76.17;103121.09;5073926;28;20048;-60
2022/01/26 01:55:10;;;;;;;146.85;73.55;;;6.40;99.90;;;6.59;75.37;103133.22;5074129;28;20093;-60
2022/01/26 01:57:40;;;;;;;145.27;72.80;;;6.50;99.90;;;6.49;75.10;103119.53;5073763;28;20039;-60
2022/01/26 02:00:11;;;;;;;146.20;74.13;;;6.40;99.90;;;6.41;75.26;103106.03;5074449;28;20044;-60
2022/01/26 02:02:39;;;;;;;146.30;71.87;;;6.30;99.90;;;6.22;75.44;103072.72;5074095;28;20076;-60
2022/01/26 02:05:09;;;;;;;152.95;75.00;;;6.30;99.90;;;6.41;75.34;103099.88;5074285;28;20042;-60
2022/01/26 02:07:37;;;;;;;145.27;75.30;;;6.30;99.90;;;6.52;74.99;103115.34;5074064;28;20141;-60
2022/01/26 02:10:07;;;;;;;146.27;74.40;;;6.30;99.90;;;6.49;75.08;103107.28;5073479;28;20083;-61
2022/01/26 02:12:39;;;;;;;142.38;71.63;;;6.30;99.90;;;6.47;74.87;103097.53;5073566;28;20037;-60
2022/01/26 02:15:15;;;;;;;141.25;70.13;;;6.30;99.90;;;6.58;74.86;103107.72;5072319;28;20682;-61
2022/01/26 02:18:12;;;;;;;136.07;67.55;;;6.40;99.90;;;6.64;74.46;103120.28;5073321;28;20052;-60
2022/01/26 02:54:36;;;;;;;146.38;72.57;;;6.60;99.90;;;6.25;74.90;102980.88;4991138;28;20562;-60
2022/01/26 02:57:25;;;;;;;142.70;70.18;;;6.60;99.90;;;6.79;75.10;103074.56;5068433;28;20060;-60
2022/01/26 03:00:13;;;;;;;144.57;72.70;;;6.60;99.90;;;6.85;74.88;103073.94;5072990;28;20193;-61
2022/01/26 03:02:47;;;;;;;148.50;75.07;;;6.60;99.90;;;6.84;74.97;103072.13;5072442;28;20053;-60
2022/01/26 03:05:18;;;;;;;143.68;73.10;;;6.60;99.90;;;6.82;75.20;103085.22;5072419;28;20151;-60
2022/01/26 03:07:52;;;;;;;142.38;72.72;;;6.60;99.90;;;6.85;75.21;103066.94;5072253;28;20149;-60
2022/01/26 03:10:30;;;;;;;144.17;72.17;;;6.60;99.90;;;6.77;75.43;103049.03;5072152;28;20078;-60
2022/01/26 03:13:03;;;;;;;143.05;71.53;;;6.60;99.90;;;6.83;75.76;103046.69;5072258;28;20157;-60
2022/01/26 03:15:37;;;;;;;145.73;72.72;;;6.60;99.90;;;6.53;75.79;103006.72;5072406;28;20105;-60
2022/01/26 03:20:52;;;;;;;143.07;72.22;;;6.60;99.90;;;6.74;76.51;103034.00;5071972;28;20052;-61
2022/01/26 03:29:13;;;;;;;143.57;70.73;;;6.50;99.90;;;6.69;76.63;103038.16;5072060;28;20105;-61
2022/01/26 03:34:27;;;;;;;138.65;70.28;;;6.50;99.90;;;6.66;77.40;103042.38;5071809;28;20406;-60
2022/01/26 03:36:59;;;;;;;147.57;70.97;;;6.50;99.90;;;6.54;78.20;103039.16;5071690;28;20454;-60
2022/01/26 03:39:29;;;;;;;145.07;71.07;;;6.40;99.90;;;6.52;78.90;103036.47;5071655;28;20099;-60
2022/01/26 03:42:05;;;;;;;152.93;70.63;;;6.30;99.90;;;6.50;79.05;103030.25;5071667;28;20173;-61
2022/01/26 03:44:34;;;;;;;143.23;67.80;;;6.30;99.90;;;6.33;79.62;102999.63;5071667;28;20055;-61
2022/01/26 03:47:03;;;;;;;151.83;71.93;;;6.20;99.90;;;6.47;79.74;103021.28;5070482;28;20565;-61
2022/01/26 03:49:31;;;;;;;140.33;69.20;;;6.20;99.90;;;6.44;80.35;103023.78;5104267;28;20051;-60
2022/01/26 03:52:00;;;;;;;147.13;68.90;;;6.20;99.90;;;6.49;80.34;103033.69;5070367;28;20044;-61
2022/01/26 03:54:28;;;;;;;144.57;71.03;;;6.20;99.90;;;6.55;80.39;103060.25;5071628;28;20048;-60
2022/01/26 03:56:56;;;;;;;140.88;70.18;;;6.30;99.90;;;6.55;80.38;103068.16;5071541;28;20554;-61
2022/01/26 03:59:26;;;;;;;150.53;72.00;;;6.30;99.90;;;6.58;80.42;103081.44;5071551;28;20452;-61
2022/01/26 04:01:54;;;;;;;143.32;70.07;;;6.30;99.90;;;6.62;80.06;103057.09;5072104;28;20056;-60
2022/01/26 04:04:23;;;;;;;143.43;68.73;;;6.40;99.90;;;6.65;80.07;103073.03;5071480;28;20044;-60
2022/01/26 04:06:51;;;;;;;150.67;71.83;;;6.40;99.90;;;6.70;80.45;103081.09;5072080;28;20048;-60
2022/01/26 04:09:20;;;;;;;146.93;68.32;;;6.50;99.90;;;6.80;80.01;103085.97;5071497;28;20072;-60
2022/01/26 04:11:50;;;;;;;145.87;68.67;;;6.50;99.90;;;6.83;79.75;103078.25;5071905;28;20110;-60
2022/01/26 04:14:23;;;;;;;139.98;68.05;;;6.60;99.90;;;6.96;79.47;103085.84;5072080;28;20059;-60
2022/01/26 04:16:57;;;;;;;140.30;68.32;;;6.70;99.90;;;6.97;79.28;103088.53;5071617;28;20052;-60
2022/01/26 04:19:28;;;;;;;142.37;69.67;;;6.70;99.90;;;7.06;79.28;103103.88;5071264;28;20067;-60
2022/01/26 04:22:07;;;;;;;135.52;66.10;;;6.80;99.90;;;7.10;78.95;103096.16;5071615;28;20271;-61
2022/01/26 04:24:39;;;;;;;139.05;66.57;;;6.80;99.90;;;7.14;78.95;103108.63;5071331;28;20094;-60
2022/01/26 04:27:17;;;;;;;140.57;66.82;;;6.90;99.90;;;7.26;78.59;103105.66;5071360;28;20086;-60
2022/01/26 04:29:47;;;;;;;135.40;65.70;;;7.00;99.90;;;7.32;78.33;103095.41;5071261;28;20049;-60
2022/01/26 04:32:17;;;;;;;132.60;63.97;;;7.10;99.90;;;7.32;78.50;103073.47;5071437;28;20075;-60
2022/01/26 04:34:47;;;;;;;;;;;7.10;99.90;;;7.30;78.22;103057.56;5071941;28;20279;-61
2022/01/26 04:37:26;;;;;;;130.40;61.78;;;7.00;99.90;;;7.26;78.75;103060.91;5071176;28;20301;-60
2022/01/26 04:39:59;;;;;;;90.50;48.47;;;7.00;99.90;;;7.18;78.86;103046.53;5071132;28;20486;-61
2022/01/26 04:42:35;;;;;;;79.45;42.20;;;7.00;99.90;;;7.11;78.58;103036.53;5071362;28;20124;-60
2022/01/26 04:45:08;;;;;;;83.22;42.40;;;6.90;99.90;;;6.91;78.69;103042.66;5071017;28;20128;-60
2022/01/26 04:47:39;;;;;;;79.57;41.97;;;6.80;99.90;;;6.85;79.03;103047.66;5071259;28;20101;-60
2022/01/26 04:50:09;;;;;;;;;;;6.60;99.90;;;6.78;79.01;103070.13;5071932;28;20078;-61
2022/01/26 04:52:39;;;;;;;85.50;43.63;;;6.60;99.90;;;6.49;79.60;103065.22;5071992;28;20006;-60
2022/01/26 04:55:09;;;;;;;83.90;45.03;;;6.40;99.90;;;6.36;80.03;103047.09;5074801;28;20110;-61
2022/01/26 04:57:37;;;;;;;88.65;45.50;;;6.30;99.90;;;6.09;80.50;103057.19;5074830;28;20321;-60
2022/01/26 05:00:09;;;;;;;92.50;50.07;;;6.00;99.90;;;6.25;80.93;103056.19;5074631;28;20079;-60
2022/01/26 05:02:38;;;;;;;90.33;48.30;;;6.10;99.90;;;6.14;81.03;103060.91;5073415;28;20052;-60
2022/01/26 05:05:08;;;;;;;85.35;47.05;;;6.00;99.90;;;6.30;80.43;103055.59;5074904;28;20109;-60
2022/01/26 05:07:37;;;;;;;84.10;45.93;;;6.20;99.90;;;6.17;80.88;103060.19;5074513;28;20127;-59
2022/01/26 05:10:06;;;;;;;85.10;44.27;;;6.10;99.90;;;6.13;80.73;103088.03;5074306;28;20044;-59
2022/01/26 05:12:35;;;;;;;80.30;44.27;;;6.00;99.90;;;5.88;80.39;103023.72;5075120;28;20048;-62
2022/01/26 05:15:05;;;;;;;90.73;48.97;;;6.00;99.90;;;6.08;80.39;103049.19;5074681;28;20282;-61
2022/01/26 05:17:35;;;;;;;92.37;50.30;;;6.00;99.90;;;6.01;80.49;103045.41;5074728;28;20068;-61
2022/01/26 05:20:08;;;;;;;91.93;47.95;;;5.90;99.90;;;6.11;80.22;103039.78;5074694;28;20094;-60
2022/01/26 05:22:39;;;;;;;95.43;51.13;;;6.00;99.90;;;6.03;80.13;103049.00;5074494;28;20483;-61
2022/01/26 05:25:08;;;;;;;100.77;50.93;;;5.90;99.90;;;5.96;80.41;103054.75;5074353;28;20040;-61
2022/01/26 05:27:37;;;;;;;94.13;48.67;;;5.90;99.90;;;5.87;80.45;103028.06;5074333;28;20539;-65
2022/01/26 05:30:07;;;;;;;94.47;48.67;;;5.90;99.90;;;6.20;79.91;103060.31;5074708;28;20078;-61
2022/01/26 05:32:35;;;;;;;96.28;48.85;;;6.00;99.90;;;6.24;79.28;103047.41;5074489;28;20041;-62
2022/01/26 05:35:06;;;;;;;98.28;50.28;;;6.10;99.90;;;6.26;79.11;103037.88;5074257;28;20064;-63
2022/01/26 05:37:34;;;;;;;;;;;6.20;99.90;;;6.39;79.06;103036.72;5074895;28;20048;-61
2022/01/26 05:40:03;;;;;;;93.47;49.23;;;6.30;99.90;;;5.91;78.27;102963.44;5074287;28;20015;-61
2022/01/26 05:42:34;;;;;;;97.10;50.27;;;6.20;99.90;;;6.13;78.62;103039.84;5074023;28;20086;-61
2022/01/26 05:45:05;;;;;;;93.70;48.53;;;6.10;99.90;;;6.05;79.39;103052.59;5073984;28;20510;-61
2022/01/26 05:47:34;;;;;;;93.53;49.43;;;5.90;99.90;;;5.89;79.34;103042.16;5074538;28;20123;-61
2022/01/26 05:50:05;;;;;;;93.50;49.67;;;5.80;99.90;;;5.90;79.16;103048.31;5073793;28;20068;-61
2022/01/26 05:52:33;;;;;;;;;;;5.80;99.90;;;5.62;79.65;103038.13;5074574;28;20040;-61
2022/01/26 05:55:02;;;;;;;91.60;47.97;;;5.50;99.90;;;5.55;79.62;103051.78;5073772;28;20011;-62
2022/01/26 05:57:30;;;;;;;95.07;48.87;;;5.40;99.90;;;5.61;80.10;103052.09;5073708;28;20048;-62
2022/01/26 05:59:58;;;;;;;99.27;51.10;;;5.50;99.90;;;5.57;79.43;103025.59;5073728;28;20135;-62
2022/01/26 06:02:27;;;;;;;101.07;50.03;;;5.60;99.90;;;5.41;79.78;103066.81;5072335;28;20106;-61
2022/01/26 06:04:55;;;;;;;94.97;50.23;;;5.40;99.90;;;5.44;80.80;103090.59;5073107;28;20445;-61
2022/01/26 06:07:25;;;;;;;96.83;51.97;;;5.30;99.90;;;5.39;81.14;103086.81;5073925;28;20055;-62
2022/01/26 06:09:53;;;;;;;92.82;48.10;;;5.30;99.90;;;5.62;80.33;103081.84;5073676;28;20193;-61
2022/01/26 06:12:22;;;;;;;94.03;49.70;;;5.40;99.90;;;5.66;80.35;103079.47;5073742;28;20114;-61
2022/01/26 06:14:52;;;;;;;94.47;48.73;;;5.50;99.90;;;5.57;79.83;103088.59;5073261;28;20401;-61
2022/01/26 06:17:20;;;;;;;96.22;48.22;;;5.50;99.90;;;5.79;80.08;103060.88;5073449;28;20071;-62
2022/01/26 06:19:48;;;;;;;99.87;50.00;;;5.60;99.90;;;5.90;79.27;103059.75;5073154;28;20044;-61
2022/01/26 06:22:17;;;;;;;92.93;49.30;;;5.80;99.90;;;6.06;79.39;103051.75;5073104;28;20406;-62
2022/01/26 06:24:46;;;;;;;95.90;49.63;;;5.80;99.90;;;6.10;78.95;103037.03;5073608;28;20045;-61
2022/01/26 06:27:15;;;;;;;97.80;52.40;;;5.90;99.90;;;6.16;79.15;103034.72;5073303;28;20098;-62
2022/01/26 06:29:43;;;;;;;97.50;51.10;;;6.00;99.90;;;6.18;78.61;103047.09;5073001;28;20171;-61
2022/01/26 06:32:12;;;;;;;96.03;50.07;;;6.00;99.90;;;6.14;78.97;103042.53;5073307;28;20052;-62
2022/01/26 06:34:40;;;;;;;103.77;53.70;;;6.00;99.90;;;6.28;78.74;103044.09;5072987;28;20072;-61
2022/01/26 06:37:08;;;;;;;101.97;53.67;;;6.20;99.90;;;6.34;78.64;103047.03;5073440;28;20070;-61
2022/01/26 06:39:37;;;;;;;94.20;50.33;;;6.20;99.90;;;6.32;78.60;103045.13;5073219;28;20106;-61
2022/01/26 06:42:13;;;;;;;94.30;49.80;;;6.20;99.90;;;6.30;78.50;103036.28;5072818;28;20118;-61
2022/01/26 06:44:51;;;;;;;88.83;47.53;;;6.10;99.90;;;6.41;78.13;103034.19;5073092;28;20442;-61
2022/01/26 06:47:35;;;;;;;93.43;46.70;;;6.20;99.90;;;6.23;77.67;103039.47;5073071;28;20121;-61
2022/01/26 06:50:05;;;;;;;80.10;42.53;;;6.20;99.90;;;6.24;77.53;103057.91;5071678;28;20049;-61
2022/01/26 06:52:33;;;;;;;81.18;45.10;;;6.10;99.90;;;6.23;77.66;103065.72;5072586;28;20045;-61
2022/01/26 06:55:04;;;;;;;75.67;42.47;;;6.00;99.90;;;6.30;77.26;103073.06;5072879;28;20033;-61
2022/01/26 06:57:34;;;;;;;80.65;42.80;;;6.10;99.90;;;6.26;77.28;103071.13;5072920;28;20126;-61
2022/01/26 07:00:03;;;;;;;87.40;46.97;;;6.10;99.90;;;6.28;77.36;103059.88;5072478;28;20118;-61
2022/01/26 07:02:32;;;;;;;85.80;45.37;;;6.10;99.90;;;6.27;77.48;103054.53;5072669;28;20052;-61
2022/01/26 07:05:00;;;;;;;92.33;46.87;;;6.10;99.90;;;6.31;77.77;103044.22;5072779;28;20090;-61
2022/01/26 07:07:29;;;;;;;87.70;45.33;;;6.10;99.90;;;6.44;77.50;103050.06;5072483;28;20041;-61
2022/01/26 07:09:57;;;;;;;88.73;47.93;;;6.30;99.90;;;6.42;77.86;103051.72;5072572;28;20052;-61
2022/01/26 07:12:25;;;;;;;86.03;47.27;;;6.20;99.90;;;6.49;77.68;103059.06;5071804;28;20460;-61
2022/01/26 07:21:21;;;;;;;82.97;46.30;;;6.40;99.90;;;6.52;77.35;103062.78;5071903;28;20070;-61
2022/01/26 07:23:38;;;;;;;83.32;44.72;;;6.40;99.90;;;6.57;77.17;103041.94;5071946;28;20123;-61
2022/01/26 07:26:07;;;;;;;83.93;45.00;;;6.50;99.90;;;6.61;77.10;103072.78;5071957;28;20052;-61
2022/01/26 07:28:38;;;;;;;86.10;45.05;;;6.40;99.90;;;6.58;77.41;103083.19;5071801;28;20051;-62
2022/01/26 07:31:11;;;;;;;82.57;42.63;;;6.40;99.90;;;6.34;77.64;103085.53;5071891;28;20048;-62
2022/01/26 07:33:42;;;;;;;74.67;40.43;;;6.20;99.90;;;6.26;77.92;103092.16;5071738;28;20502;-61
2022/01/26 07:36:11;;;;;;;73.97;38.45;;;6.10;99.90;;;6.37;77.92;103097.09;5070677;28;20082;-62
2022/01/26 07:38:39;;;;;;;71.13;36.75;;;6.10;99.90;;;6.46;77.62;103085.22;5071624;28;20398;-62
2022/01/26 07:41:08;;;;;;;68.43;37.90;;;6.20;99.90;;;6.21;77.30;103026.22;5071542;28;20048;-61
2022/01/26 07:43:36;;;;;;;74.93;38.83;;;6.30;99.90;;;6.64;77.05;103091.38;5071634;28;20142;-60
2022/01/26 07:46:06;;;;;;;76.72;37.60;;;6.40;99.90;;;6.67;76.88;103084.50;5071629;28;20170;-60
2022/01/26 07:48:36;;;;;;;76.20;38.50;;;6.50;99.90;;;6.22;77.10;103007.00;5071920;28;20374;-61
2022/01/26 07:51:06;;;;;;;72.53;37.22;;;6.50;99.90;;;6.61;77.30;103099.09;5071430;28;20044;-60
2022/01/26 07:53:35;;;;;;;70.97;36.80;;;6.50;99.90;;;6.59;77.51;103098.13;5071572;28;20186;-60
2022/01/26 07:56:03;;;;;;;77.87;38.53;;;6.40;99.90;;;6.57;77.76;103089.25;5071362;28;20528;-60
2022/01/26 07:58:32;;;;;;;74.97;36.83;;;6.40;99.90;;;6.43;78.14;103085.09;5071735;28;20044;-60
2022/01/26 08:01:00;;;;;;;88.72;39.15;;;6.30;99.90;;;6.34;78.60;103094.34;5071358;28;20056;-60
2022/01/26 08:03:33;;;;;;;75.80;38.83;;;6.30;99.90;;;6.25;79.12;103093.88;5071646;28;20397;-60
2022/01/26 08:06:05;;;;;;;72.80;35.83;;;6.20;99.90;;;5.99;80.44;103093.41;5071407;28;20036;-60
2022/01/26 08:08:33;;;;;;;70.23;35.60;;;5.90;99.90;;;6.04;80.94;103091.94;5071319;28;20056;-60
2022/01/26 08:11:02;;;;;;;74.47;36.67;;;5.90;99.90;;;6.14;80.70;103089.81;5071692;28;20061;-60
2022/01/26 08:13:30;;;;;;;76.67;37.93;;;6.00;99.90;;;6.09;80.54;103067.69;5070324;28;20052;-60
2022/01/26 08:15:59;;;;;;;76.22;39.53;;;6.10;99.90;;;6.33;80.52;103087.25;5071387;28;20052;-60
2022/01/26 08:18:27;;;;;;;66.13;35.97;;;6.10;99.90;;;6.35;80.87;103088.22;5070269;28;20056;-60
2022/01/26 08:21:02;;;;;;;71.95;35.75;;;6.20;99.90;;;6.51;80.30;103081.06;5071539;28;20043;-60
2022/01/26 08:23:32;;;;;;;77.07;37.33;;;6.30;99.90;;;6.65;79.87;103083.53;5071726;28;20101;-61
2022/01/26 08:26:01;;;;;;;73.47;36.40;;;6.40;99.90;;;6.77;79.51;103076.22;5071517;28;20041;-59
2022/01/26 08:28:35;;;;;;;76.80;35.85;;;6.50;99.90;;;6.72;79.27;103054.06;5075995;28;20068;-62
2022/01/26 08:31:04;;;;;;;71.37;36.97;;;6.70;99.90;;;6.41;79.31;103015.78;5075584;28;20052;-62
2022/01/26 08:33:33;;;;;;;72.40;36.78;;;6.60;99.90;;;6.71;79.71;103080.28;5074356;28;20052;-62
2022/01/26 08:36:02;;;;;;;73.53;36.08;;;6.60;99.90;;;6.47;79.93;103079.13;5075733;28;20470;-66
2022/01/26 08:38:32;;;;;;;73.07;35.20;;;6.40;99.90;;;6.42;80.22;103072.75;5075388;28;20435;-59
2022/01/26 08:41:00;;;;;;;76.50;38.50;;;6.30;99.90;;;6.40;80.34;103072.69;5075083;28;20055;-59
2022/01/26 08:43:29;;;;;;;78.47;38.43;;;6.30;99.90;;;6.32;80.96;103076.69;5075023;28;20520;-59
2022/01/26 08:45:57;;;;;;;72.80;38.22;;;6.20;99.90;;;6.36;81.10;103082.16;5074948;28;20070;-59
2022/01/26 08:48:26;;;;;;;73.17;37.27;;;6.20;99.90;;;5.97;81.06;102984.75;5075129;28;20064;-60
2022/01/26 08:50:55;;;;;;;68.40;36.93;;;6.30;99.90;;;6.73;80.45;103081.25;5090678;28;20052;-60
2022/01/26 08:53:24;;;;;;;72.55;37.08;;;6.50;99.90;;;6.75;80.36;103076.97;5074897;28;20048;-61
2022/01/26 08:55:55;;;;;;;76.13;37.90;;;6.60;99.90;;;6.64;80.50;103081.72;5073980;28;20064;-60
2022/01/26 08:58:23;;;;;;;66.85;35.30;;;6.50;99.90;;;6.65;80.28;103077.38;5075101;28;20078;-60
2022/01/26 09:00:52;;;;;;;66.30;35.83;;;6.50;99.90;;;6.78;79.99;103079.72;5074853;28;20117;-60
2022/01/26 09:03:22;;;;;;;69.50;36.60;;;6.60;99.90;;;6.71;79.61;103060.16;5074738;28;20098;-59
2022/01/26 09:05:50;;;;;;;71.15;39.10;;;6.70;99.90;;;6.69;79.78;103080.22;5073781;28;20121;-59
2022/01/26 09:08:19;;;;;;;70.88;36.33;;;6.60;99.90;;;6.81;79.36;103083.44;5090334;28;20063;-59
2022/01/26 09:10:53;;;;;;;60.03;34.85;;;6.60;99.90;;;6.37;79.24;103035.72;5074413;28;20406;-61
2022/01/26 09:13:24;;;;;;;58.20;33.87;;;6.50;99.90;;;6.76;78.96;103066.53;5074550;28;20049;-59
2022/01/26 09:15:53;;;;;;;61.93;34.07;;;6.60;99.90;;;6.71;78.94;103062.78;5074346;28;20048;-59
2022/01/26 09:18:32;;;;;;;64.53;35.42;;;6.60;99.90;;;6.94;78.74;103061.22;5074325;28;20044;-61
2022/01/26 09:21:00;;;;;;;56.70;33.88;;;6.80;99.90;;;6.91;78.39;103064.59;5074086;28;20044;-59
2022/01/26 09:23:29;;;;;;;59.85;34.92;;;6.70;99.90;;;6.98;77.88;103052.63;5074138;28;20094;-60
2022/01/26 09:25:57;;;;;;;61.45;33.88;;;6.90;99.90;;;7.13;77.71;103075.25;5074159;28;20457;-59
2022/01/26 09:28:27;;;;;;;56.28;34.00;;;7.00;99.90;;;7.21;77.36;103073.88;5073913;28;20144;-61
2022/01/26 09:30:55;;;;;;;57.45;33.75;;;7.00;99.90;;;7.35;76.81;103074.50;5074122;28;20469;-60
2022/01/26 09:33:24;;;;;;;61.38;36.17;;;7.20;99.90;;;7.26;77.30;103076.69;5074099;28;20120;-59
2022/01/26 09:35:53;;;;;;;60.78;33.85;;;7.10;99.90;;;7.44;76.90;103072.25;5074382;28;20036;-59
2022/01/26 09:38:21;;;;;;;120.05;67.60;;;7.20;99.90;;;6.88;76.70;102961.88;5073432;28;20036;-61
2022/01/26 09:40:51;;;;;;;380.75;242.57;;;7.30;99.90;;;7.62;76.56;103080.03;5074635;28;20037;-64
2022/01/26 09:43:20;;;;;;;114.15;62.90;;;7.40;99.90;;;7.79;75.89;103074.66;5074065;28;20158;-61
2022/01/26 09:45:50;;;;;;;49.75;32.03;;;7.50;99.90;;;7.80;75.36;103076.44;5074212;28;20048;-61
2022/01/26 09:48:18;;;;;;;57.75;32.70;;;7.60;99.90;;;7.74;75.51;103080.56;5072772;28;20159;-60
2022/01/26 09:50:54;;;;;;;54.25;30.73;;;7.50;99.90;;;7.75;75.30;103087.63;5073854;28;20526;-60
2022/01/26 09:53:27;;;;;;;50.47;30.05;;;7.60;99.90;;;7.69;75.44;103101.44;5073990;28;20044;-60
2022/01/26 09:55:56;;;;;;;49.33;29.90;;;7.40;99.90;;;7.71;75.26;103076.06;5074124;28;20045;-61
2022/01/26 09:58:24;;;;;;;48.67;30.40;;;7.50;99.90;;;7.72;75.19;103074.34;5073989;28;20041;-61
2022/01/26 10:01:02;;;;;;;50.17;29.65;;;7.50;99.90;;;7.78;75.10;103057.03;5073642;28;20117;-60
2022/01/26 10:03:35;;;;;;;51.13;29.50;;;7.60;99.90;;;7.40;74.88;102985.16;5073748;28;20044;-60
2022/01/26 10:06:07;;;;;;;45.00;27.95;;;7.60;99.90;;;7.82;75.12;103053.69;5073705;28;20040;-61
2022/01/26 10:08:58;;;;;;;50.08;27.35;;;7.60;99.90;;;7.66;74.59;103042.47;5073684;28;20037;-61
2022/01/26 10:20:03;;;;;;;41.35;26.75;;;7.60;99.90;;;7.62;74.72;103049.34;5073588;28;20040;-59
2022/01/26 10:22:34;;;;;;;46.13;26.90;;;7.70;99.90;;;7.83;74.82;103089.78;5072065;28;20075;-60
2022/01/26 10:25:15;;;;;;;40.53;24.58;;;7.70;99.90;;;7.82;75.09;103079.16;5072106;28;20060;-64
2022/01/26 10:28:04;;;;;;;41.33;25.27;;;7.60;99.90;;;7.84;74.59;103094.19;5073416;28;20072;-61
2022/01/26 10:30:34;;;;;;;43.03;24.30;;;7.70;99.90;;;7.89;74.70;103089.13;5073464;28;20036;-62
2022/01/26 10:33:09;;;;;;;40.63;25.52;;;7.70;99.90;;;7.10;74.51;102963.72;5071878;28;20793;-71
2022/01/26 10:35:37;;;;;;;36.05;23.75;;;7.70;99.90;;;7.94;74.42;103085.84;5073414;28;20048;-62
2022/01/26 10:38:07;;;;;;;40.15;24.63;;;7.80;99.90;;;7.93;74.56;103086.69;5072862;28;20117;-62
2022/01/26 10:40:39;;;;;;;39.00;25.40;;;7.80;99.90;;;7.95;74.73;103090.28;5072804;28;20391;-63
2022/01/26 10:43:11;;;;;;;40.97;24.92;;;7.80;99.90;;;8.01;74.73;103090.50;5071611;28;20048;-60
2022/01/26 10:45:52;;;;;;;46.05;25.73;;;7.80;99.90;;;7.99;74.76;103080.78;5072839;28;20441;-65
2022/01/26 10:48:30;;;;;;;45.83;24.73;;;7.90;99.90;;;7.94;74.99;103077.94;5071382;28;20089;-63
2022/01/26 10:54:10;;;;;;;41.17;23.88;;;7.80;99.90;;;8.10;75.17;103092.66;5072450;28;20053;-67
2022/01/26 10:56:40;;;;;;;46.95;26.13;;;7.80;99.90;;;8.27;74.58;103086.34;5071239;28;20131;-63
2022/01/26 10:59:10;;;;;;;39.72;24.35;;;8.00;99.90;;;8.28;74.52;103089.91;5071160;28;20472;-61
2022/01/26 11:01:38;;;;;;;39.60;22.53;;;8.10;99.90;;;8.20;74.39;103071.09;5071102;28;20405;-64
2022/01/26 11:04:10;;;;;;;38.58;22.45;;;8.10;99.90;;;8.31;74.19;103082.09;5070695;28;20087;-63
2022/01/26 11:06:42;;;;;;;38.72;23.65;;;8.10;99.90;;;8.36;73.97;103088.47;5072047;28;20059;-60
2022/01/26 11:09:24;;;;;;;38.88;23.33;;;8.20;99.90;;;8.35;73.92;103066.47;5071008;28;20070;-60
2022/01/26 11:12:01;;;;;;;41.72;24.02;;;8.20;99.90;;;8.45;74.04;103068.63;5071778;28;20059;-59
2022/01/26 11:14:41;;;;;;;43.47;24.73;;;8.20;99.90;;;8.50;73.71;103052.97;5070982;28;20045;-62
2022/01/26 11:17:11;;;;;;;36.05;23.50;;;8.30;99.90;;;8.43;73.67;103057.13;5072437;28;20058;-61
2022/01/26 11:19:44;;;;;;;34.47;21.92;;;8.30;99.90;;;8.40;73.23;103058.75;5072162;28;20102;-61
2022/01/26 11:22:15;;;;;;;36.38;22.23;;;8.30;99.90;;;8.41;73.13;103056.16;5072021;28;20051;-62
2022/01/26 11:25:12;;;;;;;37.35;21.05;;;8.20;99.90;;;8.38;73.06;103048.13;5071916;28;20037;-62
2022/01/26 11:27:42;;;;;;;40.47;23.60;;;8.20;99.90;;;8.30;73.10;103031.13;5070716;28;20048;-60
2022/01/26 11:30:20;;;;;;;37.17;22.07;;;8.20;99.90;;;8.44;73.40;103055.41;5071952;28;20041;-60
2022/01/26 11:32:57;;;;;;;35.88;21.73;;;8.30;99.90;;;8.47;73.19;103058.13;5071695;28;20066;-61
2022/01/26 11:35:29;;;;;;;36.50;22.25;;;8.30;99.90;;;8.51;73.41;103052.16;5071335;28;20054;-62
2022/01/26 11:38:10;;;;;;;36.20;21.27;;;8.30;99.90;;;8.49;73.48;103053.81;5087632;28;20063;-62
2022/01/26 11:46:28;;;;;;;37.55;22.40;;;8.30;99.90;;;8.50;73.73;103040.69;5070609;28;20383;-62
2022/01/26 11:49:02;;;;;;;35.35;22.33;;;8.30;99.90;;;8.58;73.92;103038.34;5071788;28;20052;-61
2022/01/26 11:51:44;;;;;;;35.35;22.23;;;8.40;99.90;;;8.67;73.67;103041.34;5070842;28;20059;-61
2022/01/26 11:54:16;;;;;;;37.08;22.60;;;8.50;99.90;;;8.57;73.67;103021.66;5087318;28;20048;-61
2022/01/26 11:57:11;;;;;;;36.55;22.73;;;8.50;99.90;;;8.61;73.61;103013.00;5071905;28;20052;-62
2022/01/26 11:59:46;;;;;;;40.45;24.15;;;8.60;99.90;;;8.87;73.35;103038.63;5072125;28;20386;-61